sensor_id;sensor_type;location;lat;lon;timestamp;P1;durP1;ratioP1;P2;durP2;ratioP2
13327;SDS011;6733;51.044;3.746;2023-03-01T00:01:15;7.53;;;6.73;;
13327;SDS011;6733;51.044;3.746;2023-03-01T00:03:43;6.67;;;5.93;;
13327;SDS011;6733;51.044;3.746;2023-03-01T00:06:10;8.73;;;6.50;;
13327;SDS011;6733;51.044;3.746;2023-03-01T00:08:37;7.37;;;6.67;;
13327;SDS011;6733;51.044;3.746;2023-03-01T00:11:08;7.97;;;6.30;;
13327;SDS011;6733;51.044;3.746;2023-03-01T00:13:39;7.00;;;6.30;;
13327;SDS011;6733;51.044;3.746;2023-03-01T00:16:07;10.33;;;6.77;;
13327;SDS011;6733;51.044;3.746;2023-03-01T00:18:35;7.37;;;6.67;;
13327;SDS011;6733;51.044;3.746;2023-03-01T00:21:01;8.53;;;7.20;;
13327;SDS011;6733;51.044;3.746;2023-03-01T00:23:27;8.27;;;6.87;;
13327;SDS011;6733;51.044;3.746;2023-03-01T00:25:53;7.87;;;7.10;;
13327;SDS011;6733;51.044;3.746;2023-03-01T00:28:20;8.30;;;6.87;;
13327;SDS011;6733;51.044;3.746;2023-03-01T00:30:47;8.87;;;6.60;;
13327;SDS011;6733;51.044;3.746;2023-03-01T00:33:13;7.53;;;6.73;;
13327;SDS011;6733;51.044;3.746;2023-03-01T00:35:39;7.80;;;7.00;;
13327;SDS011;6733;51.044;3.746;2023-03-01T00:38:05;7.67;;;6.47;;
13327;SDS011;6733;51.044;3.746;2023-03-01T00:40:33;8.03;;;7.23;;
13327;SDS011;6733;51.044;3.746;2023-03-01T00:43:00;10.20;;;7.70;;
13327;SDS011;6733;51.044;3.746;2023-03-01T00:45:27;8.37;;;7.47;;
13327;SDS011;6733;51.044;3.746;2023-03-01T00:47:53;8.50;;;7.67;;
13327;SDS011;6733;51.044;3.746;2023-03-01T00:50:20;9.63;;;7.90;;
13327;SDS011;6733;51.044;3.746;2023-03-01T00:52:46;10.17;;;7.57;;
13327;SDS011;6733;51.044;3.746;2023-03-01T00:55:12;8.77;;;7.70;;
13327;SDS011;6733;51.044;3.746;2023-03-01T00:57:38;8.73;;;7.83;;
13327;SDS011;6733;51.044;3.746;2023-03-01T01:00:05;8.87;;;7.97;;
13327;SDS011;6733;51.044;3.746;2023-03-01T01:02:33;12.37;;;8.43;;
13327;SDS011;6733;51.044;3.746;2023-03-01T01:04:59;9.13;;;8.20;;
13327;SDS011;6733;51.044;3.746;2023-03-01T01:07:25;10.60;;;7.50;;
13327;SDS011;6733;51.044;3.746;2023-03-01T01:09:52;8.37;;;7.57;;
13327;SDS011;6733;51.044;3.746;2023-03-01T01:12:18;8.83;;;7.67;;
13327;SDS011;6733;51.044;3.746;2023-03-01T01:14:44;8.83;;;7.40;;
13327;SDS011;6733;51.044;3.746;2023-03-01T01:17:10;8.73;;;7.60;;
13327;SDS011;6733;51.044;3.746;2023-03-01T01:19:36;9.97;;;8.10;;
13327;SDS011;6733;51.044;3.746;2023-03-01T01:22:02;11.00;;;8.40;;
13327;SDS011;6733;51.044;3.746;2023-03-01T01:24:29;9.13;;;7.63;;
13327;SDS011;6733;51.044;3.746;2023-03-01T01:26:55;9.17;;;8.20;;
13327;SDS011;6733;51.044;3.746;2023-03-01T01:29:22;9.23;;;7.90;;
13327;SDS011;6733;51.044;3.746;2023-03-01T01:31:48;12.63;;;10.57;;
13327;SDS011;6733;51.044;3.746;2023-03-01T01:34:15;10.40;;;8.23;;
13327;SDS011;6733;51.044;3.746;2023-03-01T01:36:43;8.97;;;8.07;;
13327;SDS011;6733;51.044;3.746;2023-03-01T01:39:13;9.40;;;8.50;;
13327;SDS011;6733;51.044;3.746;2023-03-01T01:41:40;9.57;;;8.50;;
13327;SDS011;6733;51.044;3.746;2023-03-01T01:46:49;12.90;;;9.63;;
13327;SDS011;6733;51.044;3.746;2023-03-01T01:49:23;9.93;;;8.93;;
13327;SDS011;6733;51.044;3.746;2023-03-01T01:51:58;13.27;;;9.80;;
13327;SDS011;6733;51.044;3.746;2023-03-01T01:57:23;11.40;;;9.30;;
13327;SDS011;6733;51.044;3.746;2023-03-01T01:59:56;12.67;;;9.93;;
13327;SDS011;6733;51.044;3.746;2023-03-01T02:02:26;11.00;;;9.97;;
13327;SDS011;6733;51.044;3.746;2023-03-01T02:04:53;9.57;;;8.57;;
13327;SDS011;6733;51.044;3.746;2023-03-01T02:07:29;10.77;;;9.70;;
13327;SDS011;6733;51.044;3.746;2023-03-01T02:09:56;11.33;;;10.13;;
13327;SDS011;6733;51.044;3.746;2023-03-01T02:12:23;11.53;;;10.33;;
13327;SDS011;6733;51.044;3.746;2023-03-01T02:14:51;12.17;;;10.73;;
13327;SDS011;6733;51.044;3.746;2023-03-01T02:17:17;11.53;;;10.33;;
13327;SDS011;6733;51.044;3.746;2023-03-01T02:22:35;14.27;;;11.00;;
13327;SDS011;6733;51.044;3.746;2023-03-01T02:27:58;12.93;;;11.03;;
13327;SDS011;6733;51.044;3.746;2023-03-01T02:30:39;12.40;;;11.07;;
13327;SDS011;6733;51.044;3.746;2023-03-01T02:37:02;12.70;;;11.00;;
13327;SDS011;6733;51.044;3.746;2023-03-01T02:39:39;14.53;;;12.00;;
13327;SDS011;6733;51.044;3.746;2023-03-01T02:42:09;13.00;;;11.60;;
13327;SDS011;6733;51.044;3.746;2023-03-01T02:44:40;13.17;;;11.87;;
13327;SDS011;6733;51.044;3.746;2023-03-01T02:47:06;13.60;;;11.87;;
13327;SDS011;6733;51.044;3.746;2023-03-01T02:49:34;13.57;;;11.73;;
13327;SDS011;6733;51.044;3.746;2023-03-01T02:54:39;15.23;;;12.63;;
13327;SDS011;6733;51.044;3.746;2023-03-01T02:57:13;13.50;;;11.60;;
13327;SDS011;6733;51.044;3.746;2023-03-01T02:59:40;15.40;;;13.10;;
13327;SDS011;6733;51.044;3.746;2023-03-01T03:02:18;15.17;;;12.80;;
13327;SDS011;6733;51.044;3.746;2023-03-01T03:04:47;15.50;;;12.77;;
13327;SDS011;6733;51.044;3.746;2023-03-01T03:07:13;15.87;;;13.07;;
13327;SDS011;6733;51.044;3.746;2023-03-01T03:09:40;17.70;;;13.67;;
13327;SDS011;6733;51.044;3.746;2023-03-01T03:12:05;16.30;;;13.20;;
13327;SDS011;6733;51.044;3.746;2023-03-01T03:14:31;16.53;;;12.70;;
13327;SDS011;6733;51.044;3.746;2023-03-01T03:16:59;16.37;;;13.03;;
13327;SDS011;6733;51.044;3.746;2023-03-01T03:19:26;16.73;;;13.23;;
13327;SDS011;6733;51.044;3.746;2023-03-01T03:21:52;16.13;;;13.13;;
13327;SDS011;6733;51.044;3.746;2023-03-01T03:24:18;15.70;;;14.00;;
13327;SDS011;6733;51.044;3.746;2023-03-01T03:26:44;17.07;;;14.27;;
13327;SDS011;6733;51.044;3.746;2023-03-01T03:29:10;16.90;;;14.33;;
13327;SDS011;6733;51.044;3.746;2023-03-01T03:31:36;18.53;;;14.37;;
13327;SDS011;6733;51.044;3.746;2023-03-01T03:34:03;17.17;;;15.13;;
13327;SDS011;6733;51.044;3.746;2023-03-01T03:36:29;16.83;;;14.63;;
13327;SDS011;6733;51.044;3.746;2023-03-01T03:38:55;15.67;;;14.00;;
13327;SDS011;6733;51.044;3.746;2023-03-01T03:41:21;18.60;;;15.00;;
13327;SDS011;6733;51.044;3.746;2023-03-01T03:43:47;19.27;;;15.40;;
13327;SDS011;6733;51.044;3.746;2023-03-01T03:46:14;17.87;;;14.83;;
13327;SDS011;6733;51.044;3.746;2023-03-01T03:48:41;18.27;;;15.40;;
13327;SDS011;6733;51.044;3.746;2023-03-01T03:51:15;19.13;;;15.30;;
13327;SDS011;6733;51.044;3.746;2023-03-01T03:53:42;15.83;;;13.97;;
13327;SDS011;6733;51.044;3.746;2023-03-01T03:56:09;19.70;;;14.53;;
13327;SDS011;6733;51.044;3.746;2023-03-01T03:58:36;18.17;;;15.67;;
13327;SDS011;6733;51.044;3.746;2023-03-01T04:01:03;16.70;;;13.93;;
13327;SDS011;6733;51.044;3.746;2023-03-01T04:03:30;17.93;;;15.50;;
13327;SDS011;6733;51.044;3.746;2023-03-01T04:05:58;17.50;;;14.37;;
13327;SDS011;6733;51.044;3.746;2023-03-01T04:08:25;17.20;;;14.13;;
13327;SDS011;6733;51.044;3.746;2023-03-01T04:10:52;17.47;;;15.03;;
13327;SDS011;6733;51.044;3.746;2023-03-01T04:13:23;19.27;;;14.93;;
13327;SDS011;6733;51.044;3.746;2023-03-01T04:15:51;16.87;;;15.07;;
13327;SDS011;6733;51.044;3.746;2023-03-01T04:18:18;18.27;;;15.17;;
13327;SDS011;6733;51.044;3.746;2023-03-01T04:20:45;17.43;;;15.20;;
13327;SDS011;6733;51.044;3.746;2023-03-01T04:23:15;19.63;;;14.40;;
13327;SDS011;6733;51.044;3.746;2023-03-01T04:31:02;20.87;;;16.03;;
13327;SDS011;6733;51.044;3.746;2023-03-01T04:33:41;19.67;;;15.90;;
13327;SDS011;6733;51.044;3.746;2023-03-01T04:36:09;18.53;;;15.10;;
13327;SDS011;6733;51.044;3.746;2023-03-01T04:38:37;20.20;;;15.00;;
13327;SDS011;6733;51.044;3.746;2023-03-01T04:41:07;18.10;;;14.70;;
13327;SDS011;6733;51.044;3.746;2023-03-01T04:43:35;20.67;;;16.30;;
13327;SDS011;6733;51.044;3.746;2023-03-01T04:46:02;23.07;;;15.87;;
13327;SDS011;6733;51.044;3.746;2023-03-01T04:48:30;18.93;;;14.93;;
13327;SDS011;6733;51.044;3.746;2023-03-01T04:50:58;18.50;;;14.53;;
13327;SDS011;6733;51.044;3.746;2023-03-01T04:53:25;22.20;;;15.87;;
13327;SDS011;6733;51.044;3.746;2023-03-01T04:55:51;19.33;;;15.73;;
13327;SDS011;6733;51.044;3.746;2023-03-01T04:58:18;19.07;;;15.67;;
13327;SDS011;6733;51.044;3.746;2023-03-01T05:00:45;19.97;;;16.07;;
13327;SDS011;6733;51.044;3.746;2023-03-01T05:03:11;19.87;;;16.00;;
13327;SDS011;6733;51.044;3.746;2023-03-01T05:05:37;20.87;;;16.53;;
13327;SDS011;6733;51.044;3.746;2023-03-01T05:08:05;21.73;;;16.10;;
13327;SDS011;6733;51.044;3.746;2023-03-01T05:10:34;22.03;;;15.70;;
13327;SDS011;6733;51.044;3.746;2023-03-01T05:13:01;19.13;;;14.80;;
13327;SDS011;6733;51.044;3.746;2023-03-01T05:15:29;19.37;;;15.50;;
13327;SDS011;6733;51.044;3.746;2023-03-01T05:17:56;18.93;;;16.17;;
13327;SDS011;6733;51.044;3.746;2023-03-01T05:20:25;18.97;;;15.13;;
13327;SDS011;6733;51.044;3.746;2023-03-01T05:22:52;20.77;;;15.73;;
13327;SDS011;6733;51.044;3.746;2023-03-01T05:25:22;20.07;;;15.50;;
13327;SDS011;6733;51.044;3.746;2023-03-01T05:27:49;18.93;;;15.57;;
13327;SDS011;6733;51.044;3.746;2023-03-01T05:30:15;19.43;;;14.97;;
13327;SDS011;6733;51.044;3.746;2023-03-01T05:32:47;19.87;;;15.87;;
13327;SDS011;6733;51.044;3.746;2023-03-01T05:35:16;20.10;;;15.10;;
13327;SDS011;6733;51.044;3.746;2023-03-01T05:37:44;20.27;;;15.40;;
13327;SDS011;6733;51.044;3.746;2023-03-01T05:40:13;21.70;;;14.93;;
13327;SDS011;6733;51.044;3.746;2023-03-01T05:42:51;18.00;;;14.83;;
13327;SDS011;6733;51.044;3.746;2023-03-01T05:45:22;21.20;;;15.40;;
13327;SDS011;6733;51.044;3.746;2023-03-01T05:47:50;19.67;;;16.23;;
13327;SDS011;6733;51.044;3.746;2023-03-01T05:50:18;19.37;;;16.13;;
13327;SDS011;6733;51.044;3.746;2023-03-01T05:52:49;18.90;;;14.63;;
13327;SDS011;6733;51.044;3.746;2023-03-01T05:55:18;20.87;;;15.57;;
13327;SDS011;6733;51.044;3.746;2023-03-01T05:57:45;20.87;;;16.07;;
13327;SDS011;6733;51.044;3.746;2023-03-01T06:00:12;16.90;;;14.87;;
13327;SDS011;6733;51.044;3.746;2023-03-01T06:02:44;19.30;;;15.00;;
13327;SDS011;6733;51.044;3.746;2023-03-01T06:05:11;20.87;;;15.50;;
13327;SDS011;6733;51.044;3.746;2023-03-01T06:07:38;18.30;;;14.83;;
13327;SDS011;6733;51.044;3.746;2023-03-01T06:10:05;17.40;;;14.43;;
13327;SDS011;6733;51.044;3.746;2023-03-01T06:12:33;19.77;;;15.10;;
13327;SDS011;6733;51.044;3.746;2023-03-01T06:15:00;19.57;;;15.37;;
13327;SDS011;6733;51.044;3.746;2023-03-01T06:17:31;19.43;;;14.97;;
13327;SDS011;6733;51.044;3.746;2023-03-01T06:19:58;22.00;;;16.00;;
13327;SDS011;6733;51.044;3.746;2023-03-01T06:22:24;19.50;;;15.00;;
13327;SDS011;6733;51.044;3.746;2023-03-01T06:24:49;19.67;;;15.33;;
13327;SDS011;6733;51.044;3.746;2023-03-01T06:27:15;18.40;;;15.77;;
13327;SDS011;6733;51.044;3.746;2023-03-01T06:29:41;18.83;;;15.30;;
13327;SDS011;6733;51.044;3.746;2023-03-01T06:32:07;18.93;;;15.20;;
13327;SDS011;6733;51.044;3.746;2023-03-01T06:34:33;19.67;;;15.27;;
13327;SDS011;6733;51.044;3.746;2023-03-01T06:36:59;20.00;;;15.77;;
13327;SDS011;6733;51.044;3.746;2023-03-01T06:39:28;19.43;;;15.00;;
13327;SDS011;6733;51.044;3.746;2023-03-01T06:41:54;19.07;;;15.50;;
13327;SDS011;6733;51.044;3.746;2023-03-01T06:44:20;17.83;;;15.47;;
13327;SDS011;6733;51.044;3.746;2023-03-01T06:46:46;19.77;;;15.27;;
13327;SDS011;6733;51.044;3.746;2023-03-01T06:49:12;19.23;;;14.50;;
13327;SDS011;6733;51.044;3.746;2023-03-01T06:51:38;18.53;;;14.50;;
13327;SDS011;6733;51.044;3.746;2023-03-01T06:54:04;17.53;;;14.27;;
13327;SDS011;6733;51.044;3.746;2023-03-01T06:56:31;18.77;;;13.90;;
13327;SDS011;6733;51.044;3.746;2023-03-01T06:58:57;18.37;;;14.13;;
13327;SDS011;6733;51.044;3.746;2023-03-01T07:01:24;18.13;;;14.97;;
13327;SDS011;6733;51.044;3.746;2023-03-01T07:03:50;18.13;;;13.57;;
13327;SDS011;6733;51.044;3.746;2023-03-01T07:06:16;17.43;;;14.17;;
13327;SDS011;6733;51.044;3.746;2023-03-01T07:08:43;15.93;;;12.93;;
13327;SDS011;6733;51.044;3.746;2023-03-01T07:11:09;16.63;;;12.60;;
13327;SDS011;6733;51.044;3.746;2023-03-01T07:13:35;16.00;;;12.73;;
13327;SDS011;6733;51.044;3.746;2023-03-01T07:16:01;16.83;;;13.50;;
13327;SDS011;6733;51.044;3.746;2023-03-01T07:18:27;16.27;;;12.30;;
13327;SDS011;6733;51.044;3.746;2023-03-01T07:20:53;15.63;;;12.33;;
13327;SDS011;6733;51.044;3.746;2023-03-01T07:23:19;13.27;;;11.60;;
13327;SDS011;6733;51.044;3.746;2023-03-01T07:25:52;16.37;;;12.03;;
13327;SDS011;6733;51.044;3.746;2023-03-01T07:28:24;15.17;;;11.70;;
13327;SDS011;6733;51.044;3.746;2023-03-01T07:30:51;15.37;;;11.43;;
13327;SDS011;6733;51.044;3.746;2023-03-01T07:33:17;13.80;;;11.30;;
13327;SDS011;6733;51.044;3.746;2023-03-01T07:35:43;24.80;;;13.40;;
13327;SDS011;6733;51.044;3.746;2023-03-01T07:38:09;14.10;;;11.07;;
13327;SDS011;6733;51.044;3.746;2023-03-01T07:40:35;12.00;;;10.70;;
13327;SDS011;6733;51.044;3.746;2023-03-01T07:43:01;18.63;;;12.37;;
13327;SDS011;6733;51.044;3.746;2023-03-01T07:45:27;12.63;;;10.30;;
13327;SDS011;6733;51.044;3.746;2023-03-01T07:47:54;14.17;;;11.30;;
13327;SDS011;6733;51.044;3.746;2023-03-01T07:50:21;12.10;;;10.80;;
13327;SDS011;6733;51.044;3.746;2023-03-01T07:52:49;15.03;;;10.97;;
13327;SDS011;6733;51.044;3.746;2023-03-01T07:55:15;13.83;;;11.63;;
13327;SDS011;6733;51.044;3.746;2023-03-01T07:57:42;13.10;;;10.60;;
13327;SDS011;6733;51.044;3.746;2023-03-01T08:00:09;13.07;;;10.70;;
13327;SDS011;6733;51.044;3.746;2023-03-01T08:02:36;15.50;;;10.87;;
13327;SDS011;6733;51.044;3.746;2023-03-01T08:05:03;12.73;;;11.13;;
13327;SDS011;6733;51.044;3.746;2023-03-01T08:09:55;15.00;;;12.10;;
13327;SDS011;6733;51.044;3.746;2023-03-01T08:12:21;14.80;;;11.33;;
13327;SDS011;6733;51.044;3.746;2023-03-01T08:14:47;14.13;;;11.93;;
13327;SDS011;6733;51.044;3.746;2023-03-01T08:17:13;14.20;;;12.00;;
13327;SDS011;6733;51.044;3.746;2023-03-01T08:19:40;15.97;;;11.80;;
13327;SDS011;6733;51.044;3.746;2023-03-01T08:22:06;14.83;;;11.40;;
13327;SDS011;6733;51.044;3.746;2023-03-01T08:24:32;18.30;;;12.40;;
13327;SDS011;6733;51.044;3.746;2023-03-01T08:26:58;15.00;;;12.10;;
13327;SDS011;6733;51.044;3.746;2023-03-01T08:29:24;15.27;;;11.30;;
13327;SDS011;6733;51.044;3.746;2023-03-01T08:31:50;20.03;;;10.83;;
13327;SDS011;6733;51.044;3.746;2023-03-01T08:34:17;16.53;;;11.30;;
13327;SDS011;6733;51.044;3.746;2023-03-01T08:36:44;14.90;;;11.70;;
13327;SDS011;6733;51.044;3.746;2023-03-01T08:39:13;11.87;;;10.67;;
13327;SDS011;6733;51.044;3.746;2023-03-01T08:41:41;13.60;;;10.43;;
13327;SDS011;6733;51.044;3.746;2023-03-01T08:44:07;15.43;;;10.17;;
13327;SDS011;6733;51.044;3.746;2023-03-01T08:46:39;17.63;;;11.37;;
13327;SDS011;6733;51.044;3.746;2023-03-01T08:49:07;11.83;;;9.80;;
13327;SDS011;6733;51.044;3.746;2023-03-01T08:51:35;15.67;;;10.90;;
13327;SDS011;6733;51.044;3.746;2023-03-01T08:54:04;12.43;;;10.23;;
13327;SDS011;6733;51.044;3.746;2023-03-01T08:56:38;13.17;;;11.00;;
13327;SDS011;6733;51.044;3.746;2023-03-01T08:59:04;12.53;;;10.17;;
13327;SDS011;6733;51.044;3.746;2023-03-01T09:01:30;13.13;;;9.43;;
13327;SDS011;6733;51.044;3.746;2023-03-01T09:03:57;14.80;;;10.10;;
13327;SDS011;6733;51.044;3.746;2023-03-01T09:06:23;15.97;;;10.43;;
13327;SDS011;6733;51.044;3.746;2023-03-01T09:08:49;13.97;;;9.77;;
13327;SDS011;6733;51.044;3.746;2023-03-01T09:11:18;17.27;;;10.23;;
13327;SDS011;6733;51.044;3.746;2023-03-01T09:13:46;15.67;;;10.23;;
13327;SDS011;6733;51.044;3.746;2023-03-01T09:16:14;11.50;;;10.23;;
13327;SDS011;6733;51.044;3.746;2023-03-01T09:18:42;14.53;;;10.87;;
13327;SDS011;6733;51.044;3.746;2023-03-01T09:21:12;15.67;;;10.07;;
13327;SDS011;6733;51.044;3.746;2023-03-01T09:23:41;13.00;;;9.73;;
13327;SDS011;6733;51.044;3.746;2023-03-01T09:26:12;12.47;;;9.57;;
13327;SDS011;6733;51.044;3.746;2023-03-01T09:28:42;14.00;;;10.00;;
13327;SDS011;6733;51.044;3.746;2023-03-01T09:31:09;14.10;;;9.50;;
13327;SDS011;6733;51.044;3.746;2023-03-01T09:33:38;12.47;;;9.00;;
13327;SDS011;6733;51.044;3.746;2023-03-01T09:36:06;11.63;;;8.93;;
13327;SDS011;6733;51.044;3.746;2023-03-01T09:38:34;12.03;;;9.67;;
13327;SDS011;6733;51.044;3.746;2023-03-01T09:41:00;12.40;;;9.17;;
13327;SDS011;6733;51.044;3.746;2023-03-01T09:46:11;13.47;;;8.83;;
13327;SDS011;6733;51.044;3.746;2023-03-01T09:48:52;12.17;;;9.23;;
13327;SDS011;6733;51.044;3.746;2023-03-01T09:51:23;11.77;;;9.00;;
13327;SDS011;6733;51.044;3.746;2023-03-01T09:53:52;17.47;;;10.43;;
13327;SDS011;6733;51.044;3.746;2023-03-01T09:56:22;10.80;;;9.27;;
13327;SDS011;6733;51.044;3.746;2023-03-01T09:59:11;12.93;;;8.80;;
13327;SDS011;6733;51.044;3.746;2023-03-01T10:07:17;11.87;;;9.43;;
13327;SDS011;6733;51.044;3.746;2023-03-01T10:10:07;9.97;;;7.87;;
13327;SDS011;6733;51.044;3.746;2023-03-01T10:12:35;12.13;;;8.20;;
13327;SDS011;6733;51.044;3.746;2023-03-01T10:15:17;14.50;;;9.37;;
13327;SDS011;6733;51.044;3.746;2023-03-01T10:18:04;12.70;;;9.07;;
13327;SDS011;6733;51.044;3.746;2023-03-01T10:20:48;10.60;;;9.07;;
13327;SDS011;6733;51.044;3.746;2023-03-01T10:23:44;14.50;;;9.13;;
13327;SDS011;6733;51.044;3.746;2023-03-01T10:34:04;10.63;;;9.47;;
13327;SDS011;6733;51.044;3.746;2023-03-01T10:36:35;9.70;;;8.70;;
13327;SDS011;6733;51.044;3.746;2023-03-01T10:39:03;13.00;;;10.23;;
13327;SDS011;6733;51.044;3.746;2023-03-01T10:42:00;12.37;;;8.97;;
13327;SDS011;6733;51.044;3.746;2023-03-01T10:44:38;12.87;;;8.77;;
13327;SDS011;6733;51.044;3.746;2023-03-01T10:47:05;12.63;;;9.13;;
13327;SDS011;6733;51.044;3.746;2023-03-01T10:49:37;10.87;;;8.80;;
13327;SDS011;6733;51.044;3.746;2023-03-01T10:52:19;11.53;;;8.60;;
13327;SDS011;6733;51.044;3.746;2023-03-01T10:54:52;9.27;;;8.30;;
13327;SDS011;6733;51.044;3.746;2023-03-01T10:57:38;10.83;;;8.43;;
13327;SDS011;6733;51.044;3.746;2023-03-01T11:02:48;8.80;;;7.87;;
13327;SDS011;6733;51.044;3.746;2023-03-01T11:05:19;10.83;;;8.30;;
13327;SDS011;6733;51.044;3.746;2023-03-01T11:10:18;14.67;;;8.23;;
13327;SDS011;6733;51.044;3.746;2023-03-01T11:13:14;9.33;;;7.70;;
13327;SDS011;6733;51.044;3.746;2023-03-01T11:15:42;10.17;;;8.30;;
13327;SDS011;6733;51.044;3.746;2023-03-01T11:18:19;9.93;;;7.60;;
13327;SDS011;6733;51.044;3.746;2023-03-01T11:20:47;10.00;;;8.33;;
13327;SDS011;6733;51.044;3.746;2023-03-01T11:23:16;10.23;;;8.37;;
13327;SDS011;6733;51.044;3.746;2023-03-01T11:25:47;10.87;;;8.63;;
13327;SDS011;6733;51.044;3.746;2023-03-01T11:28:20;9.23;;;7.80;;
13327;SDS011;6733;51.044;3.746;2023-03-01T11:36:28;8.90;;;8.00;;
13327;SDS011;6733;51.044;3.746;2023-03-01T11:41:52;9.43;;;7.70;;
13327;SDS011;6733;51.044;3.746;2023-03-01T11:44:28;9.50;;;7.93;;
13327;SDS011;6733;51.044;3.746;2023-03-01T11:58:07;9.83;;;6.87;;
13327;SDS011;6733;51.044;3.746;2023-03-01T12:00:58;9.20;;;7.50;;
13327;SDS011;6733;51.044;3.746;2023-03-01T12:06:43;7.17;;;6.47;;
13327;SDS011;6733;51.044;3.746;2023-03-01T12:09:21;7.87;;;7.03;;
13327;SDS011;6733;51.044;3.746;2023-03-01T12:17:50;10.70;;;6.47;;
13327;SDS011;6733;51.044;3.746;2023-03-01T12:20:30;7.57;;;6.00;;
13327;SDS011;6733;51.044;3.746;2023-03-01T12:23:30;6.67;;;5.97;;
13327;SDS011;6733;51.044;3.746;2023-03-01T12:28:54;9.27;;;6.67;;
13327;SDS011;6733;51.044;3.746;2023-03-01T12:32:01;8.57;;;6.63;;
13327;SDS011;6733;51.044;3.746;2023-03-01T12:40:43;8.97;;;7.37;;
13327;SDS011;6733;51.044;3.746;2023-03-01T12:43:30;8.37;;;6.60;;
13327;SDS011;6733;51.044;3.746;2023-03-01T12:46:29;11.33;;;9.17;;
13327;SDS011;6733;51.044;3.746;2023-03-01T12:49:11;7.03;;;6.37;;
13327;SDS011;6733;51.044;3.746;2023-03-01T12:51:40;7.57;;;6.07;;
13327;SDS011;6733;51.044;3.746;2023-03-01T12:54:20;8.07;;;6.70;;
13327;SDS011;6733;51.044;3.746;2023-03-01T12:56:53;9.87;;;5.83;;
13327;SDS011;6733;51.044;3.746;2023-03-01T12:59:29;7.57;;;6.47;;
13327;SDS011;6733;51.044;3.746;2023-03-01T13:02:29;8.37;;;6.23;;
13327;SDS011;6733;51.044;3.746;2023-03-01T13:05:50;7.00;;;6.30;;
13327;SDS011;6733;51.044;3.746;2023-03-01T13:10:43;6.93;;;6.23;;
13327;SDS011;6733;51.044;3.746;2023-03-01T13:13:14;9.33;;;7.23;;
13327;SDS011;6733;51.044;3.746;2023-03-01T13:15:45;12.57;;;7.87;;
13327;SDS011;6733;51.044;3.746;2023-03-01T13:38:56;9.37;;;7.30;;
13327;SDS011;6733;51.044;3.746;2023-03-01T13:46:52;10.37;;;7.33;;
13327;SDS011;6733;51.044;3.746;2023-03-01T13:49:22;9.27;;;6.80;;
13327;SDS011;6733;51.044;3.746;2023-03-01T13:51:52;9.33;;;7.47;;
13327;SDS011;6733;51.044;3.746;2023-03-01T13:54:30;7.43;;;6.73;;
13327;SDS011;6733;51.044;3.746;2023-03-01T13:56:59;7.80;;;7.03;;
13327;SDS011;6733;51.044;3.746;2023-03-01T13:59:27;8.67;;;6.60;;
13327;SDS011;6733;51.044;3.746;2023-03-01T14:01:56;7.97;;;7.10;;
13327;SDS011;6733;51.044;3.746;2023-03-01T14:04:28;7.63;;;6.37;;
13327;SDS011;6733;51.044;3.746;2023-03-01T14:09:39;8.03;;;7.00;;
13327;SDS011;6733;51.044;3.746;2023-03-01T14:20:22;10.67;;;7.80;;
13327;SDS011;6733;51.044;3.746;2023-03-01T14:22:51;9.80;;;8.13;;
13327;SDS011;6733;51.044;3.746;2023-03-01T14:30:34;7.77;;;6.97;;
13327;SDS011;6733;51.044;3.746;2023-03-01T14:33:05;8.17;;;6.73;;
13327;SDS011;6733;51.044;3.746;2023-03-01T14:35:51;7.50;;;6.40;;
13327;SDS011;6733;51.044;3.746;2023-03-01T14:38:22;7.80;;;7.10;;
13327;SDS011;6733;51.044;3.746;2023-03-01T14:40:57;6.90;;;6.10;;
13327;SDS011;6733;51.044;3.746;2023-03-01T14:43:27;10.50;;;8.17;;
13327;SDS011;6733;51.044;3.746;2023-03-01T14:45:55;8.03;;;7.00;;
13327;SDS011;6733;51.044;3.746;2023-03-01T14:48:22;10.67;;;7.00;;
13327;SDS011;6733;51.044;3.746;2023-03-01T14:50:49;7.50;;;6.67;;
13327;SDS011;6733;51.044;3.746;2023-03-01T14:53:20;8.37;;;7.07;;
13327;SDS011;6733;51.044;3.746;2023-03-01T14:55:53;10.10;;;7.20;;
13327;SDS011;6733;51.044;3.746;2023-03-01T14:58:22;7.87;;;7.03;;
13327;SDS011;6733;51.044;3.746;2023-03-01T15:00:51;8.57;;;7.67;;
13327;SDS011;6733;51.044;3.746;2023-03-01T15:04:05;9.03;;;7.30;;
13327;SDS011;6733;51.044;3.746;2023-03-01T15:06:17;9.87;;;7.73;;
13327;SDS011;6733;51.044;3.746;2023-03-01T15:08:46;9.13;;;7.50;;
13327;SDS011;6733;51.044;3.746;2023-03-01T15:13:55;8.93;;;7.03;;
13327;SDS011;6733;51.044;3.746;2023-03-01T15:16:29;9.03;;;7.20;;
13327;SDS011;6733;51.044;3.746;2023-03-01T15:18:58;9.33;;;7.20;;
13327;SDS011;6733;51.044;3.746;2023-03-01T15:21:34;8.70;;;7.43;;
13327;SDS011;6733;51.044;3.746;2023-03-01T15:26:58;8.83;;;7.00;;
13327;SDS011;6733;51.044;3.746;2023-03-01T15:29:32;8.00;;;7.20;;
13327;SDS011;6733;51.044;3.746;2023-03-01T15:32:04;9.00;;;6.73;;
13327;SDS011;6733;51.044;3.746;2023-03-01T15:34:46;9.30;;;6.77;;
13327;SDS011;6733;51.044;3.746;2023-03-01T15:40:20;7.33;;;6.53;;
13327;SDS011;6733;51.044;3.746;2023-03-01T15:42:50;10.83;;;7.33;;
13327;SDS011;6733;51.044;3.746;2023-03-01T15:47:48;7.63;;;6.90;;
13327;SDS011;6733;51.044;3.746;2023-03-01T15:50:26;8.57;;;7.43;;
13327;SDS011;6733;51.044;3.746;2023-03-01T15:52:54;8.67;;;7.77;;
13327;SDS011;6733;51.044;3.746;2023-03-01T15:55:23;8.03;;;7.20;;
13327;SDS011;6733;51.044;3.746;2023-03-01T15:58:14;9.40;;;7.33;;
13327;SDS011;6733;51.044;3.746;2023-03-01T16:00:44;8.27;;;7.43;;
13327;SDS011;6733;51.044;3.746;2023-03-01T16:03:12;9.63;;;7.37;;
13327;SDS011;6733;51.044;3.746;2023-03-01T16:05:38;10.50;;;8.47;;
13327;SDS011;6733;51.044;3.746;2023-03-01T16:08:05;10.63;;;7.93;;
13327;SDS011;6733;51.044;3.746;2023-03-01T16:10:32;8.77;;;7.70;;
13327;SDS011;6733;51.044;3.746;2023-03-01T16:13:02;11.43;;;8.70;;
13327;SDS011;6733;51.044;3.746;2023-03-01T16:15:29;11.77;;;9.40;;
13327;SDS011;6733;51.044;3.746;2023-03-01T16:18:01;9.63;;;8.60;;
13327;SDS011;6733;51.044;3.746;2023-03-01T16:20:28;10.43;;;8.50;;
13327;SDS011;6733;51.044;3.746;2023-03-01T16:22:57;10.30;;;8.53;;
13327;SDS011;6733;51.044;3.746;2023-03-01T16:25:25;12.33;;;7.93;;
13327;SDS011;6733;51.044;3.746;2023-03-01T16:27:52;11.23;;;8.60;;
13327;SDS011;6733;51.044;3.746;2023-03-01T16:30:19;10.23;;;8.50;;
13327;SDS011;6733;51.044;3.746;2023-03-01T16:32:47;10.20;;;8.70;;
13327;SDS011;6733;51.044;3.746;2023-03-01T16:35:15;8.37;;;7.53;;
13327;SDS011;6733;51.044;3.746;2023-03-01T16:37:44;9.80;;;8.50;;
13327;SDS011;6733;51.044;3.746;2023-03-01T16:42:47;20.63;;;11.70;;
13327;SDS011;6733;51.044;3.746;2023-03-01T16:45:14;24.00;;;17.07;;
13327;SDS011;6733;51.044;3.746;2023-03-01T16:47:51;14.53;;;10.63;;
13327;SDS011;6733;51.044;3.746;2023-03-01T16:50:18;17.33;;;13.80;;
13327;SDS011;6733;51.044;3.746;2023-03-01T16:52:44;12.57;;;10.23;;
13327;SDS011;6733;51.044;3.746;2023-03-01T16:55:10;10.47;;;8.60;;
13327;SDS011;6733;51.044;3.746;2023-03-01T16:57:37;11.70;;;9.00;;
13327;SDS011;6733;51.044;3.746;2023-03-01T17:00:05;12.87;;;8.93;;
13327;SDS011;6733;51.044;3.746;2023-03-01T17:02:36;9.60;;;8.60;;
13327;SDS011;6733;51.044;3.746;2023-03-01T17:05:02;11.43;;;9.20;;
13327;SDS011;6733;51.044;3.746;2023-03-01T17:07:30;11.37;;;8.23;;
13327;SDS011;6733;51.044;3.746;2023-03-01T17:10:01;9.40;;;8.33;;
13327;SDS011;6733;51.044;3.746;2023-03-01T17:12:29;13.83;;;9.10;;
13327;SDS011;6733;51.044;3.746;2023-03-01T17:14:57;13.97;;;9.20;;
13327;SDS011;6733;51.044;3.746;2023-03-01T17:17:26;9.83;;;8.87;;
13327;SDS011;6733;51.044;3.746;2023-03-01T17:19:53;9.80;;;8.80;;
13327;SDS011;6733;51.044;3.746;2023-03-01T17:22:19;11.40;;;9.00;;
13327;SDS011;6733;51.044;3.746;2023-03-01T17:24:45;11.53;;;9.30;;